Time;durP1;ratioP1;P1;durP2;ratioP2;P2;SDS_P1;SDS_P2;PMS_P1;PMS_P2;Temp;Humidity;BMP_temperature;BMP_pressure;BME280_temperature;BME280_humidity;BME280_pressure;Samples;Min_cycle;Max_cycle;Signal;HPM_P1;HPM_P2
2022/08/12 00:43:50;;;;;;;6.93;4.82;;;;;;;13.19;63.05;99079.28;4203339;28;20093;-69
2022/08/12 00:48:10;;;;;;;6.03;3.80;;;;;;;13.12;64.38;99090.28;4203478;28;20063;-69
2022/08/12 00:50:17;;;;;;;4.80;4.30;;;;;;;13.09;65.33;99077.16;4202230;28;20044;-69
2022/08/12 00:52:18;;;;;;;4.68;4.18;;;;;;;13.08;65.47;99085.88;4201662;28;20619;-69
2022/08/12 00:54:19;;;;;;;6.57;4.18;;;;;;;13.07;65.45;99085.06;4202236;28;20082;-69
2022/08/12 00:56:21;;;;;;;7.18;4.13;;;;;;;13.06;66.01;99086.22;4203540;28;20036;-69
2022/08/12 00:58:24;;;;;;;4.82;4.32;;;;;;;13.02;66.08;99084.63;4202922;28;20048;-69
2022/08/12 01:00:25;;;;;;;8.77;4.50;;;;;;;13.00;66.48;99087.78;4202031;28;20100;-69
2022/08/12 01:02:28;;;;;;;4.30;3.88;;;;;;;12.94;66.68;99098.41;4202051;28;20056;-69
2022/08/12 01:11:28;;;;;;;7.03;4.63;;;;;;;12.75;66.35;99092.22;4202243;28;20487;-69
2022/08/12 01:13:31;;;;;;;6.65;3.97;;;;;;;12.68;66.44;99097.69;4202954;28;20045;-69
2022/08/12 01:15:32;;;;;;;6.85;4.20;;;;;;;12.58;66.58;99097.19;4202586;28;20036;-69
2022/08/12 01:17:33;;;;;;;13.00;4.80;;;;;;;12.54;65.09;99104.63;4202517;28;20117;-69
2022/08/12 01:19:33;;;;;;;5.45;3.90;;;;;;;12.42;64.53;99093.78;4201999;28;20143;-69
2022/08/12 01:22:11;;;;;;;4.65;3.33;;;;;;;12.38;63.65;99104.81;4203291;28;20527;-69
2022/08/12 01:24:40;;;;;;;8.10;4.20;;;;;;;12.26;64.03;99101.47;4203011;28;20776;-69
2022/08/12 01:26:44;;;;;;;7.55;3.88;;;;;;;12.23;63.75;99102.22;4202987;28;20040;-69
2022/08/12 01:28:47;;;;;;;5.10;3.80;;;;;;;12.22;63.66;99104.19;4202351;28;20040;-69
2022/08/12 01:30:48;;;;;;;8.02;3.92;;;;;;;12.18;63.72;99095.03;4203234;28;20040;-69
2022/08/12 01:32:50;;;;;;;8.77;4.18;;;;;;;12.22;63.41;99097.84;4203900;28;20055;-69
2022/08/12 01:35:00;;;;;;;7.20;3.47;;;;;;;12.21;63.50;99105.38;4201934;28;20083;-69
2022/08/12 01:37:01;;;;;;;6.60;4.47;;;;;;;12.18;63.74;99100.56;4203295;28;20079;-69
2022/08/12 01:39:03;;;;;;;5.73;3.97;;;;;;;12.18;63.99;99097.00;4202562;28;20131;-69
2022/08/12 01:41:04;;;;;;;5.88;3.92;;;;;;;12.13;64.21;99089.78;4202126;28;20032;-69
2022/08/12 01:43:08;;;;;;;6.47;3.70;;;;;;;12.11;64.15;99094.13;4203038;28;20040;-69
2022/08/12 01:45:11;;;;;;;4.95;3.67;;;;;;;12.07;64.38;99089.28;4202867;28;20048;-69
2022/08/12 01:47:22;;;;;;;;;;;;;;;12.04;64.59;99094.81;4203224;28;20070;-69
2022/08/12 01:49:47;;;;;;;8.48;4.13;;;;;;;12.07;63.14;99100.38;4201164;28;20007;-69
2022/08/12 01:51:55;;;;;;;4.68;3.88;;;;;;;12.14;63.25;99090.59;4202262;28;20085;-69
2022/08/12 01:54:04;;;;;;;5.13;3.90;;;;;;;12.10;63.77;99093.31;4202616;28;20051;-69
2022/08/12 01:56:05;;;;;;;5.25;4.22;;;;;;;12.05;64.47;99088.88;4201566;28;20068;-69
2022/08/12 02:01:10;;;;;;;4.72;3.85;;;;;;;12.02;63.93;99086.84;4185565;28;20197;-68
2022/08/12 02:03:21;;;;;;;4.80;3.90;;;;;;;11.97;64.14;99086.38;4203159;28;20756;-69
2022/08/12 02:13:33;;;;;;;6.13;3.80;;;;;;;11.71;67.07;99076.81;4202208;28;20075;-68
2022/08/12 02:16:08;;;;;;;5.18;3.90;;;;;;;11.65;68.23;99078.28;4199962;28;20082;-68
2022/08/12 02:18:42;;;;;;;7.47;4.45;;;;;;;11.61;69.03;99084.97;4201851;28;20050;-69
2022/08/12 02:20:52;;;;;;;9.30;4.90;;;;;;;11.52;69.48;99071.34;4177386;28;20055;-69
2022/08/12 02:22:54;;;;;;;9.15;4.38;;;;;;;11.50;69.44;99074.50;4201764;28;20055;-69
2022/08/12 02:25:18;;;;;;;4.95;4.38;;;;;;;11.49;68.33;99069.31;4201861;28;20064;-69
2022/08/12 02:27:20;;;;;;;7.18;4.15;;;;;;;11.42;69.52;99078.31;4201584;28;20431;-69
2022/08/12 02:29:21;;;;;;;10.35;4.85;;;;;;;11.38;70.00;99079.41;4201755;28;20097;-68
2022/08/12 02:31:23;;;;;;;5.20;4.32;;;;;;;11.35;69.29;99071.84;4202130;28;20047;-69
2022/08/12 02:33:24;;;;;;;6.32;4.50;;;;;;;11.33;69.95;99076.94;4201919;28;20091;-68
2022/08/12 02:35:27;;;;;;;7.85;4.88;;;;;;;11.28;70.33;99074.50;4200985;28;20054;-68
2022/08/12 02:37:30;;;;;;;8.15;5.00;;;;;;;11.21;70.59;99075.94;4203547;28;20048;-68
2022/08/12 02:39:34;;;;;;;6.38;4.47;;;;;;;11.16;69.78;99067.94;4201231;28;20969;-68
2022/08/12 02:41:40;;;;;;;5.88;4.53;;;;;;;11.13;69.84;99078.97;4202557;28;20563;-68
2022/08/12 02:43:47;;;;;;;6.07;4.43;;;;;;;11.12;70.02;99072.63;4202306;28;20052;-68
2022/08/12 02:46:02;;;;;;;5.80;4.50;;;;;;;11.11;69.58;99073.78;4201789;28;20189;-68
2022/08/12 02:48:07;;;;;;;7.00;4.97;;;;;;;11.07;70.10;99061.84;4201880;28;20134;-69
2022/08/12 02:50:09;;;;;;;7.53;4.82;;;;;;;11.07;70.10;99070.13;4202013;28;20036;-69
2022/08/12 02:52:14;;;;;;;10.85;6.05;;;;;;;11.01;69.61;99068.06;4202165;28;20245;-69
2022/08/12 02:54:14;;;;;;;7.22;4.63;;;;;;;10.95;69.90;99067.56;4202139;28;20068;-68
2022/08/12 02:56:16;;;;;;;10.57;6.05;;;;;;;10.95;68.59;99073.09;4200424;28;20035;-68
2022/08/12 02:58:17;;;;;;;7.03;5.27;;;;;;;10.93;68.44;99072.66;4201669;28;20488;-68
2022/08/12 03:00:18;;;;;;;8.00;5.20;;;;;;;10.91;68.32;99063.91;4201623;28;20028;-68
2022/08/12 03:02:21;;;;;;;11.60;6.00;;;;;;;10.94;67.80;99068.72;4202533;28;20149;-68
2022/08/12 03:04:28;;;;;;;9.35;5.63;;;;;;;10.94;67.85;99074.25;4200166;28;20051;-68
2022/08/12 03:06:52;;;;;;;9.07;5.78;;;;;;;10.93;67.44;99076.22;4201428;28;20044;-68
2022/08/12 03:08:56;;;;;;;9.43;5.75;;;;;;;10.96;67.60;99081.03;4201345;28;20036;-68
2022/08/12 03:11:08;;;;;;;8.45;5.60;;;;;;;10.94;67.77;99077.03;4202581;28;20055;-68
2022/08/12 03:13:11;;;;;;;8.80;5.35;;;;;;;10.91;68.54;99089.59;4201791;28;20055;-68
2022/08/12 03:15:16;;;;;;;7.65;4.75;;;;;;;10.90;69.04;99078.91;4200440;28;20086;-68
2022/08/12 03:17:33;;;;;;;9.32;5.63;;;;;;;10.88;68.64;99084.81;4199790;28;20048;-68
2022/08/12 03:19:37;;;;;;;6.97;4.85;;;;;;;10.81;69.46;99084.66;4200333;28;20052;-68
2022/08/12 03:21:40;;;;;;;7.32;5.53;;;;;;;10.80;69.39;99079.50;4203609;28;20503;-68
2022/08/12 03:23:43;;;;;;;6.75;4.85;;;;;;;10.76;70.75;99079.44;4204035;28;20043;-68
2022/08/12 03:25:44;;;;;;;6.95;5.30;;;;;;;10.70;70.22;99072.59;4204178;28;20051;-68
2022/08/12 03:27:48;;;;;;;6.03;4.72;;;;;;;10.69;71.06;99065.47;4204001;28;20329;-68
2022/08/12 03:29:50;;;;;;;9.05;4.90;;;;;;;10.69;69.71;99073.75;4204326;28;20040;-68
2022/08/12 03:31:58;;;;;;;5.43;4.88;;;;;;;10.73;69.41;99065.53;4203984;28;20468;-68
2022/08/12 03:34:04;;;;;;;7.53;5.03;;;;;;;10.71;69.79;99065.88;4203719;28;20044;-68
2022/08/12 03:36:06;;;;;;;8.82;5.20;;;;;;;10.80;68.95;99079.50;4204216;28;20051;-68
2022/08/12 03:38:10;;;;;;;7.18;5.07;;;;;;;10.90;68.04;99076.94;4204900;28;20039;-68
2022/08/12 03:41:32;;;;;;;6.93;4.97;;;;;;;10.89;68.82;99080.09;4204103;28;20089;-68
2022/08/12 03:42:39;;;;;;;8.10;5.45;;;;;;;10.82;68.43;99086.28;4204943;28;20044;-68
2022/08/12 04:01:27;;;;;;;9.27;5.15;;;;;;;10.36;71.97;99093.59;4201356;28;20055;-68
2022/08/12 04:05:48;;;;;;;7.72;5.07;;;;;;;10.24;72.69;99091.75;4196926;28;20059;-68
2022/08/12 04:07:50;;;;;;;6.50;4.55;;;;;;;10.26;72.05;99094.97;4198257;28;20492;-68
2022/08/12 04:09:50;;;;;;;13.23;5.88;;;;;;;10.26;72.42;99094.97;4195779;28;20067;-68
2022/08/12 04:14:19;;;;;;;7.32;5.15;;;;;;;10.24;72.72;99102.00;4198794;28;20055;-68
2022/08/12 04:16:20;;;;;;;8.30;5.20;;;;;;;10.22;73.56;99091.31;4203875;28;20031;-68
2022/08/12 04:18:22;;;;;;;5.80;4.97;;;;;;;10.24;73.97;99104.78;4195244;28;20062;-68
2022/08/12 04:20:23;;;;;;;9.45;4.88;;;;;;;10.19;73.94;99094.78;4193062;28;20712;-68
2022/08/12 04:22:29;;;;;;;8.52;5.53;;;;;;;10.19;74.01;99094.78;4194105;28;20144;-68
2022/08/12 04:24:34;;;;;;;7.38;5.05;;;;;;;10.20;74.23;99095.59;4193047;28;20533;-68
2022/08/12 04:26:35;;;;;;;7.07;5.35;;;;;;;10.19;74.13;99096.75;4194564;28;20453;-68
2022/08/12 04:28:36;;;;;;;7.32;4.90;;;;;;;10.15;75.17;99091.13;4198504;28;20090;-68
2022/08/12 04:30:38;;;;;;;9.10;5.13;;;;;;;10.13;75.42;99094.25;4200025;28;20341;-68
2022/08/12 04:32:39;;;;;;;;;;;;;;;10.18;74.68;99097.88;4200386;28;20068;-68
2022/08/12 04:34:43;;;;;;;9.10;5.25;;;;;;;10.14;74.51;99092.28;4202384;28;20391;-68
2022/08/12 04:36:43;;;;;;;7.60;4.68;;;;;;;10.14;74.68;99106.91;4201810;28;20036;-68
2022/08/12 04:38:44;;;;;;;6.85;4.72;;;;;;;10.13;73.50;99102.53;4202518;28;20454;-68
2022/08/12 04:40:45;;;;;;;5.65;4.65;;;;;;;10.16;73.14;99101.00;4199826;28;20036;-68
2022/08/12 04:42:46;;;;;;;8.10;5.30;;;;;;;10.19;73.36;99110.56;4200690;28;20044;-68
2022/08/12 04:44:47;;;;;;;11.93;5.80;;;;;;;10.18;73.40;99106.19;4200379;28;20036;-68
2022/08/12 04:46:47;;;;;;;5.28;4.75;;;;;;;10.21;73.59;99099.94;4203401;28;20127;-68
2022/08/12 04:48:47;;;;;;;7.72;5.63;;;;;;;10.25;73.70;99106.38;4203002;28;20479;-68
2022/08/12 04:50:48;;;;;;;9.18;5.28;;;;;;;10.29;73.36;99098.97;4201041;28;20041;-68
2022/08/12 04:52:49;;;;;;;10.10;5.32;;;;;;;10.33;73.64;99097.88;4201242;28;20052;-68
2022/08/12 04:54:50;;;;;;;8.90;4.95;;;;;;;10.40;72.68;99092.50;4201824;28;20044;-68
2022/08/12 04:56:52;;;;;;;11.88;5.78;;;;;;;10.48;72.97;99099.00;4203540;28;20060;-68
2022/08/12 04:58:54;;;;;;;8.13;4.82;;;;;;;10.58;73.09;99103.16;4202291;28;20048;-68
2022/08/12 05:00:54;;;;;;;5.40;4.82;;;;;;;10.79;74.47;99102.81;4203240;28;20046;-68
2022/08/12 05:02:55;;;;;;;9.02;5.13;;;;;;;10.94;73.76;99099.97;4200707;28;20048;-68
2022/08/12 05:04:55;;;;;;;8.80;6.50;;;;;;;11.12;73.89;99105.06;4201118;28;20043;-68
2022/08/12 05:06:56;;;;;;;6.63;4.65;;;;;;;11.42;73.20;99106.03;4130228;28;20041;-68
2022/08/12 05:08:59;;;;;;;5.95;4.50;;;;;;;11.51;72.50;99103.81;4184808;28;20074;-68
2022/08/12 05:11:00;;;;;;;10.55;5.63;;;;;;;11.63;71.88;99105.59;4184894;28;20137;-68
2022/08/12 05:13:06;;;;;;;8.50;4.45;;;;;;;11.72;72.10;99108.91;4185431;28;20044;-68
2022/08/12 05:15:07;;;;;;;7.15;4.47;;;;;;;11.85;71.12;99101.25;4184553;28;20040;-68
2022/08/12 05:17:08;;;;;;;7.75;4.35;;;;;;;11.96;70.73;99104.97;4185017;28;20051;-68
2022/08/12 05:19:08;;;;;;;4.18;3.78;;;;;;;12.08;70.26;99103.97;4186542;28;20196;-68
2022/08/12 05:21:09;;;;;;;5.60;4.15;;;;;;;12.15;69.96;99097.72;4186764;28;20055;-68
2022/08/12 05:23:11;;;;;;;6.45;4.65;;;;;;;12.26;69.03;99093.16;4184180;28;20040;-68
2022/08/12 05:25:14;;;;;;;9.45;5.47;;;;;;;12.36;67.99;99096.06;4185108;28;20043;-68
2022/08/12 05:27:15;;;;;;;;;;;;;;;12.47;68.03;99107.31;4185725;28;20492;-68
2022/08/12 05:29:15;;;;;;;5.68;4.60;;;;;;;12.55;67.52;99102.66;4186215;28;20022;-68
2022/08/12 05:31:16;;;;;;;8.90;4.85;;;;;;;12.60;67.71;99107.91;4184639;28;20196;-68
2022/08/12 05:33:16;;;;;;;8.65;4.93;;;;;;;12.68;67.58;99106.03;4184631;28;20055;-68
2022/08/12 05:35:17;;;;;;;7.05;5.13;;;;;;;12.70;66.88;99104.47;4186319;28;20879;-68
2022/08/12 05:37:17;;;;;;;5.75;4.43;;;;;;;12.78;66.16;99111.69;4185803;28;20044;-68
2022/08/12 05:39:17;;;;;;;6.25;4.25;;;;;;;12.85;65.58;99111.78;4184257;28;20032;-68
2022/08/12 05:41:19;;;;;;;6.88;4.20;;;;;;;12.91;65.17;99110.28;4185559;28;20376;-68
2022/08/12 05:43:19;;;;;;;7.15;5.10;;;;;;;13.02;66.01;99109.63;4185912;28;20067;-68
2022/08/12 05:45:20;;;;;;;5.65;4.57;;;;;;;13.08;66.34;99116.44;4185325;28;20053;-68
2022/08/12 05:47:20;;;;;;;7.63;4.70;;;;;;;13.16;65.45;99115.34;4186175;28;20079;-68
2022/08/12 05:49:20;;;;;;;8.50;4.72;;;;;;;13.23;64.87;99117.41;4185121;28;20464;-68
2022/08/12 05:51:26;;;;;;;5.97;4.70;;;;;;;13.31;65.82;99117.09;4185766;28;20524;-68
2022/08/12 05:53:27;;;;;;;9.43;4.80;;;;;;;13.42;66.27;99109.69;4185933;28;20123;-68
2022/08/12 05:55:27;;;;;;;6.90;4.65;;;;;;;13.49;66.12;99118.09;4184734;28;20490;-68
2022/08/12 05:57:28;;;;;;;8.25;5.22;;;;;;;13.59;65.62;99110.25;4186925;28;20074;-68
2022/08/12 05:59:28;;;;;;;6.85;4.32;;;;;;;13.64;64.66;99110.69;4184144;28;20127;-68
2022/08/12 06:01:29;;;;;;;6.88;4.72;;;;;;;13.73;64.58;99121.47;4184612;28;20087;-68
2022/08/12 06:03:29;;;;;;;5.13;4.45;;;;;;;13.81;63.98;99120.38;4186583;28;20441;-68
2022/08/12 06:05:36;;;;;;;7.78;4.13;;;;;;;13.86;63.99;99110.88;4186045;28;20634;-68
2022/08/12 06:07:44;;;;;;;9.82;5.70;;;;;;;13.97;64.83;99114.53;4185903;28;20040;-68
2022/08/12 06:09:44;;;;;;;14.25;4.75;;;;;;;14.07;63.78;99122.19;4184979;28;20056;-68
2022/08/12 06:11:46;;;;;;;6.90;4.43;;;;;;;14.17;63.58;99115.09;4185422;28;20059;-68
2022/08/12 06:13:47;;;;;;;6.85;4.20;;;;;;;14.25;63.03;99117.56;4184669;28;20472;-68
2022/08/12 06:15:48;;;;;;;5.40;4.60;;;;;;;14.37;62.90;99122.00;4185732;28;20048;-68
2022/08/12 06:17:48;;;;;;;5.57;3.80;;;;;;;14.45;63.04;99120.88;4185789;28;20524;-68
2022/08/12 06:19:48;;;;;;;6.57;4.15;;;;;;;14.58;62.72;99124.16;4185570;28;20036;-68
2022/08/12 06:21:50;;;;;;;6.18;3.90;;;;;;;14.71;62.39;99130.97;4186271;28;20489;-68
2022/08/12 06:23:51;;;;;;;5.85;3.95;;;;;;;14.82;62.36;99131.84;4185061;28;20447;-68
2022/08/12 06:25:51;;;;;;;8.32;4.20;;;;;;;14.94;61.46;99121.53;4185986;28;20143;-68
2022/08/12 06:27:52;;;;;;;7.05;4.18;;;;;;;15.02;61.01;99118.38;4184369;28;20450;-68
2022/08/12 06:29:52;;;;;;;6.80;4.57;;;;;;;15.16;61.00;99126.00;4185230;28;20226;-68
2022/08/12 06:31:53;;;;;;;8.07;4.75;;;;;;;15.27;60.12;99129.63;4179490;28;20756;-68
2022/08/12 06:33:54;;;;;;;9.32;4.40;;;;;;;15.35;59.48;99131.22;4185005;28;20037;-68
2022/08/12 06:35:55;;;;;;;4.80;3.80;;;;;;;15.39;58.86;99128.44;4186316;28;20499;-68
2022/08/12 06:37:55;;;;;;;5.13;3.50;;;;;;;15.48;58.91;99128.09;4184583;28;20037;-68
2022/08/12 06:39:55;;;;;;;3.95;3.25;;;;;;;15.53;58.20;99122.09;4184490;28;20095;-68
2022/08/12 06:44:19;;;;;;;4.40;3.85;;;;;;;15.70;58.21;99115.78;4184643;28;20419;-69
2022/08/12 06:46:21;;;;;;;4.93;4.10;;;;;;;15.80;58.07;99119.78;4184762;28;20025;-69
2022/08/12 06:48:23;;;;;;;6.18;3.83;;;;;;;15.88;57.77;99118.59;4184953;28;20048;-69
2022/08/12 06:50:26;;;;;;;5.95;4.05;;;;;;;15.95;58.19;99113.81;4185532;28;20079;-68
2022/08/12 06:52:27;;;;;;;7.40;4.10;;;;;;;16.07;57.92;99106.25;4185085;28;20043;-69
2022/08/12 06:54:27;;;;;;;5.72;3.92;;;;;;;16.14;57.65;99107.03;4185674;28;20040;-69
2022/08/12 06:56:29;;;;;;;8.40;4.40;;;;;;;16.23;57.02;99106.63;4190857;28;20420;-69
2022/08/12 06:58:31;;;;;;;5.53;4.03;;;;;;;16.34;55.96;99101.81;4189756;28;20047;-69
2022/08/12 07:00:33;;;;;;;6.07;3.67;;;;;;;16.41;55.65;99103.81;4190598;28;20044;-68
2022/08/12 07:02:34;;;;;;;4.75;3.92;;;;;;;16.48;55.05;99101.78;4190868;27;20044;-69
2022/08/12 07:04:37;;;;;;;7.35;3.45;;;;;;;16.55;55.15;99089.81;4191334;28;20036;-69
2022/08/12 07:06:37;;;;;;;5.47;3.42;;;;;;;16.65;55.38;99096.56;4190409;28;20041;-69
2022/08/12 07:08:39;;;;;;;6.35;3.88;;;;;;;16.81;55.04;99096.94;4190430;28;20552;-69
2022/08/12 07:10:46;;;;;;;8.25;3.80;;;;;;;16.96;54.11;99094.88;4190962;28;20312;-69
2022/08/12 07:12:47;;;;;;;7.95;3.75;;;;;;;17.05;53.72;99095.25;4190015;28;20056;-69
2022/08/12 07:14:50;;;;;;;5.37;3.73;;;;;;;17.13;53.50;99094.00;4189293;28;20059;-68
2022/08/12 07:16:55;;;;;;;5.32;4.10;;;;;;;17.19;53.40;99100.75;4190151;28;20332;-68
2022/08/12 07:18:57;;;;;;;5.57;3.50;;;;;;;17.24;53.01;99097.53;4190843;27;20095;-69
2022/08/12 07:21:02;;;;;;;9.38;4.10;;;;;;;17.33;52.48;99095.09;4189379;28;20159;-69
2022/08/12 07:23:04;;;;;;;5.07;3.42;;;;;;;17.43;52.54;99107.41;4191538;28;20049;-69
2022/08/12 07:27:24;;;;;;;5.45;3.60;;;;;;;17.68;51.64;99107.25;4189836;28;20262;-69
2022/08/12 07:29:24;;;;;;;7.43;3.50;;;;;;;17.77;51.11;99113.19;4189870;28;20495;-69
2022/08/12 07:31:26;;;;;;;11.18;3.80;;;;;;;17.94;50.38;99101.06;4190252;28;20091;-69
2022/08/12 07:33:27;;;;;;;5.33;3.50;;;;;;;18.05;50.96;99103.00;4191136;28;20140;-69
2022/08/12 07:35:29;;;;;;;8.25;3.63;;;;;;;18.13;50.20;99104.53;4189439;27;20040;-69
2022/08/12 07:37:30;;;;;;;14.05;4.78;;;;;;;18.18;50.49;99104.88;4191304;28;20047;-69
2022/08/12 07:39:30;;;;;;;14.43;4.15;;;;;;;18.30;50.54;99094.38;4189795;27;20155;-69
2022/08/12 07:41:32;;;;;;;13.80;3.97;;;;;;;18.47;50.12;99099.00;4190390;28;20064;-69
2022/08/12 07:43:35;;;;;;;8.85;3.78;;;;;;;18.65;49.13;99098.81;4190083;28;20319;-69
2022/08/12 07:45:35;;;;;;;9.80;3.65;;;;;;;18.81;49.02;99104.66;4191022;28;20041;-69
2022/08/12 07:47:36;;;;;;;11.52;3.30;;;;;;;19.00;48.49;99101.22;4190465;28;20047;-69
2022/08/12 07:49:37;;;;;;;8.45;3.42;;;;;;;19.13;48.02;99097.88;4189273;28;20051;-69
2022/08/12 07:51:38;;;;;;;8.88;3.80;;;;;;;19.25;47.35;99098.06;4188868;28;20612;-69
2022/08/12 07:53:39;;;;;;;8.77;3.85;;;;;;;19.32;47.00;99100.00;4190374;28;20488;-69
2022/08/12 07:55:39;;;;;;;6.85;3.13;;;;;;;19.35;46.83;99097.13;4190281;28;20380;-69
2022/08/12 07:57:52;;;;;;;6.97;3.63;;;;;;;19.44;47.11;99099.41;4189825;28;20041;-69
2022/08/12 07:59:53;;;;;;;6.25;3.03;;;;;;;19.55;47.32;99099.28;4190749;28;20052;-69
2022/08/12 08:01:58;;;;;;;11.20;3.50;;;;;;;19.74;45.56;99095.00;4190592;28;20480;-69
2022/08/12 08:06:17;;;;;;;4.65;2.60;;;;;;;19.99;44.95;99086.19;4189085;28;20036;-69
2022/08/12 08:08:24;;;;;;;4.80;2.60;;;;;;;20.10;44.61;99089.59;4186081;28;20032;-69
2022/08/12 08:10:25;;;;;;;5.43;2.60;;;;;;;20.16;44.36;99083.06;4186815;28;20036;-69
2022/08/12 08:14:47;;;;;;;5.97;2.45;;;;;;;20.42;43.60;99080.59;4186913;28;20124;-69
2022/08/12 08:16:47;;;;;;;4.60;2.63;;;;;;;20.44;43.56;99083.81;4187507;28;20041;-69
2022/08/12 08:18:47;;;;;;;4.00;2.50;;;;;;;20.47;43.50;99091.38;4187754;28;20411;-69
2022/08/12 08:20:48;;;;;;;5.55;2.63;;;;;;;20.53;43.35;99075.59;4186656;28;20469;-69
2022/08/12 08:22:48;;;;;;;4.45;2.65;;;;;;;20.65;42.63;99080.56;4188132;28;20051;-69
2022/08/12 08:24:57;;;;;;;3.33;2.45;;;;;;;20.68;42.87;99088.13;4186443;28;20029;-69
2022/08/12 08:26:58;;;;;;;4.63;2.50;;;;;;;20.84;42.83;99079.00;4186162;28;20033;-69
2022/08/12 08:28:59;;;;;;;4.90;2.35;;;;;;;20.99;42.74;99076.69;4187048;28;20489;-70
2022/08/12 08:30:59;;;;;;;6.18;2.40;;;;;;;21.12;41.83;99074.00;4187370;28;20036;-70
2022/08/12 08:32:59;;;;;;;7.07;2.22;;;;;;;21.33;41.46;99079.19;4186685;28;20352;-70
2022/08/12 08:35:00;;;;;;;14.13;3.17;;;;;;;21.49;40.82;99069.97;4187547;28;20048;-70
2022/08/12 08:37:01;;;;;;;3.40;2.03;;;;;;;21.68;40.78;99073.94;4188005;28;20051;-70
2022/08/12 08:39:03;;;;;;;4.63;2.10;;;;;;;21.83;40.63;99073.16;4185799;28;20159;-70
2022/08/12 08:43:22;;;;;;;3.95;2.40;;;;;;;22.10;40.20;99075.75;4187782;28;20469;-70
2022/08/12 08:45:23;;;;;;;3.15;2.28;;;;;;;22.22;39.34;99077.06;4187082;28;20084;-70
2022/08/12 08:47:23;;;;;;;2.85;1.80;;;;;;;22.29;38.35;99070.44;4187256;28;20419;-70
2022/08/12 08:49:24;;;;;;;3.70;2.45;;;;;;;22.36;39.24;99062.59;4186900;28;20453;-70
2022/08/12 08:51:25;;;;;;;2.75;2.00;;;;;;;22.55;38.42;99071.34;4187256;28;20045;-70
2022/08/12 08:53:25;;;;;;;5.78;2.13;;;;;;;22.78;37.77;99073.16;4187097;28;20119;-70
2022/08/12 08:55:26;;;;;;;3.22;1.90;;;;;;;22.92;37.54;99073.56;4187614;28;20049;-70
2022/08/12 08:57:26;;;;;;;5.88;2.13;;;;;;;22.99;37.47;99069.72;4187246;28;20129;-70
2022/08/12 08:59:28;;;;;;;3.58;2.10;;;;;;;23.08;36.92;99075.50;4186227;28;20194;-70
2022/08/12 09:01:29;;;;;;;2.28;1.83;;;;;;;23.07;36.98;99070.31;4186207;28;20170;-70
2022/08/12 09:03:30;;;;;;;3.70;2.00;;;;;;;23.11;37.47;99066.16;4187517;28;20054;-70
2022/08/12 09:05:30;;;;;;;3.78;1.70;;;;;;;23.22;37.32;99060.97;4187001;28;20036;-70
2022/08/12 09:07:31;;;;;;;3.30;1.80;;;;;;;23.32;36.47;99061.06;4186024;28;20604;-70
2022/08/12 09:09:31;;;;;;;7.20;2.17;;;;;;;23.40;36.39;99068.09;4186805;28;20059;-70
2022/08/12 09:13:50;;;;;;;9.18;1.77;;;;;;;23.42;36.36;99051.50;4185592;28;20529;-70
2022/08/12 09:15:51;;;;;;;4.07;1.77;;;;;;;23.39;36.24;99061.66;4185466;28;20136;-70
2022/08/12 09:17:54;;;;;;;2.42;1.85;;;;;;;23.42;35.99;99049.47;4186496;28;20068;-70
2022/08/12 09:19:54;;;;;;;2.78;1.60;;;;;;;23.58;36.74;99054.19;4184552;28;20047;-70
2022/08/12 09:21:56;;;;;;;3.53;1.83;;;;;;;23.70;35.52;99061.91;4186935;28;20041;-70
2022/08/12 09:24:00;;;;;;;6.32;2.00;;;;;;;23.76;35.24;99057.28;4185656;28;20133;-70
2022/08/12 09:26:01;;;;;;;3.90;1.60;;;;;;;23.75;35.74;99055.72;4186444;28;20045;-70
2022/08/12 09:28:01;;;;;;;2.50;1.55;;;;;;;23.81;35.84;99048.22;4186012;28;20045;-71
2022/08/12 09:30:02;;;;;;;5.70;1.63;;;;;;;23.82;34.92;99049.00;4183911;28;20130;-70
2022/08/12 09:32:05;;;;;;;8.13;1.95;;;;;;;23.82;35.11;99055.44;4186030;28;20079;-70
2022/08/12 09:34:08;;;;;;;2.88;1.80;;;;;;;23.85;36.12;99053.78;4186489;28;20075;-70
2022/08/12 09:36:09;;;;;;;4.45;1.73;;;;;;;23.94;35.19;99051.03;4187048;28;20115;-70
2022/08/12 09:38:15;;;;;;;2.92;1.65;;;;;;;24.08;34.71;99053.38;4186672;28;20445;-70
2022/08/12 09:40:17;;;;;;;2.40;1.40;;;;;;;23.92;34.40;99053.53;4185709;28;20147;-70
2022/08/12 09:46:56;;;;;;;2.35;1.42;;;;;;;24.35;34.15;99041.56;4184027;28;20055;-70
2022/08/12 09:48:57;;;;;;;3.72;1.58;;;;;;;24.28;34.32;99049.47;4185417;28;20373;-70
2022/08/12 09:50:58;;;;;;;2.47;1.55;;;;;;;24.11;33.43;99037.53;4185276;28;20078;-70
2022/08/12 09:53:07;;;;;;;4.95;1.80;;;;;;;24.24;33.91;99038.28;4184557;28;20128;-70
2022/08/12 09:55:11;;;;;;;2.83;1.73;;;;;;;24.24;33.72;99040.31;4186142;28;20098;-70
2022/08/12 09:57:18;;;;;;;7.63;1.40;;;;;;;24.12;34.49;99044.00;4186277;28;20496;-70
2022/08/12 09:59:18;;;;;;;3.65;1.50;;;;;;;24.26;33.32;99041.47;4184183;28;20415;-70
2022/08/12 10:01:19;;;;;;;2.83;1.60;;;;;;;24.41;33.53;99036.13;4185079;28;20055;-70
2022/08/12 10:03:20;;;;;;;6.65;1.48;;;;;;;24.44;33.39;99031.59;4186430;28;20455;-70
2022/08/12 10:05:21;;;;;;;2.13;1.30;;;;;;;24.48;32.33;99033.03;4185626;28;20048;-70
2022/08/12 10:07:21;;;;;;;4.32;1.40;;;;;;;24.50;32.02;99024.88;4186122;28;20507;-70
2022/08/12 10:09:22;;;;;;;3.53;1.27;;;;;;;24.52;32.61;99027.25;4185234;28;20048;-70
2022/08/12 10:13:42;;;;;;;1.42;1.17;;;;;;;24.74;32.85;99013.91;4185016;28;20631;-71
2022/08/12 10:15:43;;;;;;;4.25;1.35;;;;;;;24.80;32.90;99002.75;4186318;28;20131;-70
2022/08/12 10:17:44;;;;;;;2.20;1.30;;;;;;;24.89;32.33;99006.44;4185869;28;20048;-70
2022/08/12 10:19:44;;;;;;;2.22;1.40;;;;;;;25.01;31.65;99012.50;4184354;28;20033;-70
2022/08/12 10:21:44;;;;;;;5.28;1.20;;;;;;;25.06;32.34;99004.19;4185463;28;20045;-70
2022/08/12 10:23:47;;;;;;;2.05;1.20;;;;;;;25.26;31.66;99000.22;4185335;28;20300;-70
2022/08/12 10:30:25;;;;;;;4.10;1.15;;;;;;;25.12;29.87;98993.84;4185427;28;20071;-70
2022/08/12 10:32:25;;;;;;;5.35;1.30;;;;;;;25.06;30.42;98997.75;4185723;28;20057;-71
2022/08/12 10:34:26;;;;;;;4.80;1.40;;;;;;;25.11;30.77;99000.78;4185058;28;20561;-70
2022/08/12 10:36:26;;;;;;;6.63;1.38;;;;;;;25.19;30.35;98985.09;4186754;28;20131;-71
2022/08/12 10:38:28;;;;;;;3.95;1.02;;;;;;;25.29;30.65;98994.41;4184855;28;20226;-71
2022/08/12 10:40:29;;;;;;;2.00;1.30;;;;;;;25.42;30.12;98980.94;4185965;28;20097;-71
2022/08/12 10:45:02;;;;;;;3.28;1.20;;;;;;;25.40;30.29;98976.97;4185124;28;20094;-71
2022/08/12 10:47:03;;;;;;;2.75;1.10;;;;;;;25.31;30.15;98969.22;4185557;28;20040;-71
2022/08/12 10:49:04;;;;;;;2.28;1.10;;;;;;;25.46;29.99;98969.44;4184961;28;20033;-71
2022/08/12 10:51:04;;;;;;;4.35;1.35;;;;;;;25.58;31.07;98970.59;4185059;28;20063;-71
2022/08/12 10:53:07;;;;;;;1.92;1.40;;;;;;;25.62;29.83;98960.66;4185544;28;20854;-71
2022/08/12 10:55:08;;;;;;;3.80;1.50;;;;;;;25.57;29.63;98961.31;4185842;28;20032;-71
2022/08/12 10:57:09;;;;;;;3.92;1.23;;;;;;;25.45;30.09;98962.19;4185052;28;20276;-71
2022/08/12 10:59:09;;;;;;;6.18;1.42;;;;;;;25.56;29.33;98968.19;4184746;28;20041;-71
2022/08/12 11:01:10;;;;;;;1.48;1.00;;;;;;;25.66;29.91;98958.50;4186005;28;20500;-71
2022/08/12 11:03:10;;;;;;;1.88;1.05;;;;;;;25.79;29.14;98951.91;4184558;28;20135;-71
2022/08/12 11:05:11;;;;;;;4.40;1.23;;;;;;;26.01;28.30;98958.25;4185314;28;20044;-71
2022/08/12 11:07:13;;;;;;;6.03;1.10;;;;;;;26.18;28.63;98945.34;4185881;28;20063;-71
2022/08/12 11:09:16;;;;;;;2.45;1.00;;;;;;;26.31;27.26;98963.00;4184659;28;20036;-71
2022/08/12 11:11:16;;;;;;;1.55;0.90;;;;;;;26.09;27.22;98959.50;4184985;28;20084;-71
2022/08/12 11:13:18;;;;;;;2.83;1.00;;;;;;;25.91;28.38;98953.84;4185865;28;20048;-71
2022/08/12 11:15:22;;;;;;;1.30;0.90;;;;;;;26.00;27.99;98951.00;4185168;28;20132;-71
2022/08/12 11:17:22;;;;;;;1.95;1.00;;;;;;;26.14;28.53;98949.56;4185205;28;20049;-71
2022/08/12 11:19:23;;;;;;;2.38;0.93;;;;;;;26.32;27.97;98950.38;4185039;28;20460;-71
2022/08/12 11:21:24;;;;;;;1.58;0.90;;;;;;;26.44;26.82;98960.00;4184628;28;20044;-71
2022/08/12 11:23:24;;;;;;;1.50;0.93;;;;;;;26.35;26.93;98948.63;4184651;28;20400;-71
2022/08/12 11:25:25;;;;;;;1.20;0.90;;;;;;;26.46;26.99;98940.44;4185263;28;20048;-71
2022/08/12 11:27:25;;;;;;;2.45;1.10;;;;;;;26.36;26.98;98943.75;4184314;28;20054;-71
2022/08/12 11:29:27;;;;;;;2.30;1.00;;;;;;;26.48;27.03;98949.28;4184308;28;20469;-71
2022/08/12 11:31:27;;;;;;;3.13;1.17;;;;;;;26.64;27.16;98942.44;4184616;28;20052;-71